Acadiana Regional Airport
KARA : now visible

Airfield :











YOU CAN JOIN US ON...

 
LOGIN :

Register | Disclaimer

   EN    FR    IT 

 









Legend :    VFR   Marginal VFR   IFR   Intensive IFR   Very Intensive IFR
Visi :
Ceiling :
>= 8 km
>= 3000ft
5 to 8 km
1000 to 3000 ft
1500m to 5 km
500 to 1000 ft
800 to 1500m
200 to 500 ft
< 800m
< 200 ft
Symbols :   Thunderstorms  Fog  Heavy snow  Heavy precipitations  Wind > 20 kt






- Airport Elevation : 24 ft


KARA - Acadiana Regional

CURRENT METAR :
  • 191253Z 08004KT 10SM CLR 24/24 A2996 RMK AO2 SLP146 T02440244 $

EXPIRED METARs :
  • 191153Z 06006KT 10SM CLR 24/24 A2996 RMK AO2 SLP144 60000 T02390239 10244 20228 53005 $
  • 191053Z 00000KT 10SM CLR 23/23 A2995 RMK AO2 SLP140 T02330233 $

TAF KARA
Valid from the 19 at 12:00 until the 20 at 12:00 UTC


191125Z 1912/2012 VRB04KT P6SM FEW035 SCT110
FM191500 12006KT P6SM VCTS SCT040CB
TEMPO 1919/1923 4SM -TSRA BKN035CB BKN070
FM200000 18003KT P6SM BKN250
FM200900 17003KT 5SM BR FEW250
KZHU FIR / North America



MET'MAP, your aeronautical weather chart ! - Copyright ORBIFLY December 2007 - Disclaimer

ORBIFLY MET'MAP TEAM :

Programming & Development : Alexandra Zaïnal
Concept & original design : Baudouin d'Aumeries
Assistance for programming : Marc-Olivier Méhu
Technical & hardware support : Manuel Goepfert

Contact : metmap@orbifly.com




SOURCES & CREDITS :

   NOAA       Earth
Advisory